Time;durP1;ratioP1;P1;durP2;ratioP2;P2;SDS_P1;SDS_P2;PMS_P1;PMS_P2;Temp;Humidity;BMP_temperature;BMP_pressure;BME280_temperature;BME280_humidity;BME280_pressure;Samples;Min_cycle;Max_cycle;Signal;HPM_P1;HPM_P2
2022/01/01 00:02:23;;;;;;;1999.90;999.90;;;11.00;86.10;;;;;;4963410;28;20043;-77
2022/01/01 00:04:49;;;;;;;1999.90;999.90;;;11.00;86.10;;;;;;4965430;28;20027;-77
2022/01/01 00:07:16;;;;;;;1999.90;999.90;;;11.00;86.10;;;;;;4973589;28;20029;-77
2022/01/01 00:09:43;;;;;;;1999.90;999.90;;;11.00;86.10;;;;;;4974827;28;20026;-77
2022/01/01 00:12:11;;;;;;;1999.90;999.90;;;10.90;86.10;;;;;;4972639;28;20042;-77
2022/01/01 00:14:38;;;;;;;1999.90;999.90;;;10.90;86.30;;;;;;4963992;28;20050;-77
2022/01/01 00:17:04;;;;;;;1999.90;999.90;;;10.90;86.30;;;;;;4963351;28;20047;-77
2022/01/01 00:19:33;;;;;;;1999.90;999.90;;;10.90;86.20;;;;;;4964133;28;20042;-77
2022/01/01 00:22:00;;;;;;;1999.90;999.90;;;10.90;86.20;;;;;;4961325;28;20046;-77
2022/01/01 00:24:26;;;;;;;1999.90;999.90;;;10.80;86.10;;;;;;4961807;28;20033;-77
2022/01/01 00:26:52;;;;;;;1999.90;999.90;;;10.80;86.10;;;;;;4961371;28;20043;-77
2022/01/01 00:29:19;;;;;;;1999.90;999.90;;;10.80;86.20;;;;;;4964828;28;20027;-77
2022/01/01 00:31:45;;;;;;;1999.90;999.90;;;10.80;86.20;;;;;;4963227;28;20066;-77
2022/01/01 00:34:11;;;;;;;1999.90;999.90;;;10.80;86.30;;;;;;4964420;28;20480;-77
2022/01/01 00:36:38;;;;;;;1999.90;999.90;;;10.80;86.10;;;;;;4958831;28;20041;-77
2022/01/01 00:39:04;;;;;;;1999.90;999.90;;;10.80;86.10;;;;;;4960092;28;20055;-77
2022/01/01 00:41:31;;;;;;;1999.90;999.90;;;10.80;86.10;;;;;;4963619;28;20039;-77
2022/01/01 00:43:57;;;;;;;1999.90;999.90;;;10.80;86.20;;;;;;4962804;28;20051;-77
2022/01/01 00:46:23;;;;;;;1999.90;999.90;;;10.70;86.20;;;;;;4962801;28;20027;-77
2022/01/01 00:48:53;;;;;;;1999.90;999.90;;;10.70;86.30;;;;;;4959950;28;20501;-77
2022/01/01 00:51:22;;;;;;;1999.90;999.90;;;10.70;86.30;;;;;;4974542;28;20034;-77
2022/01/01 00:53:49;;;;;;;1999.90;999.90;;;10.70;86.30;;;;;;4961834;28;20031;-77
2022/01/01 00:56:15;;;;;;;1999.90;999.90;;;10.70;86.40;;;;;;4978146;28;20404;-77
2022/01/01 00:58:41;;;;;;;1999.90;999.90;;;10.70;86.40;;;;;;4970114;28;20416;-77
2022/01/01 01:01:07;;;;;;;1999.90;999.90;;;10.70;86.40;;;;;;4961500;28;20038;-77
2022/01/01 01:03:33;;;;;;;1999.90;999.90;;;10.70;86.30;;;;;;4958004;28;20043;-77
2022/01/01 01:06:00;;;;;;;1999.90;999.90;;;10.60;86.30;;;;;;4960538;28;20027;-77
2022/01/01 01:08:26;;;;;;;1999.90;999.90;;;10.60;86.40;;;;;;4946686;28;20039;-77
2022/01/01 01:10:53;;;;;;;1999.90;999.90;;;10.60;86.40;;;;;;4962977;28;20035;-77
2022/01/01 01:13:20;;;;;;;1999.90;999.90;;;10.60;86.30;;;;;;4962887;28;20026;-77
2022/01/01 01:15:46;;;;;;;1999.90;999.90;;;10.60;86.20;;;;;;4958662;28;20035;-77
2022/01/01 01:18:12;;;;;;;1999.90;999.90;;;10.50;86.20;;;;;;4958550;28;20050;-77
2022/01/01 01:20:38;;;;;;;1999.90;999.90;;;10.50;86.20;;;;;;4973721;28;20027;-77
2022/01/01 01:23:05;;;;;;;1999.90;999.90;;;10.50;86.30;;;;;;4967661;28;20031;-77
2022/01/01 01:25:38;;;;;;;1999.90;999.90;;;10.40;86.30;;;;;;4947559;28;20512;-77
2022/01/01 01:28:07;;;;;;;1999.90;999.90;;;10.40;86.30;;;;;;4973695;28;20487;-77
2022/01/01 01:30:35;;;;;;;1999.90;999.90;;;10.40;86.30;;;;;;4972521;28;20053;-77
2022/01/01 01:33:01;;;;;;;1999.90;999.90;;;10.40;86.30;;;;;;4960060;28;20024;-77
2022/01/01 01:35:27;;;;;;;1999.90;999.90;;;10.40;86.30;;;;;;4955682;28;20050;-77
2022/01/01 01:37:53;;;;;;;1999.90;999.90;;;10.40;86.40;;;;;;4967821;28;20054;-77
2022/01/01 01:40:19;;;;;;;1999.90;999.90;;;10.40;86.40;;;;;;4944114;28;20031;-77
2022/01/01 01:42:46;;;;;;;1999.90;999.90;;;10.40;86.30;;;;;;4973493;28;20030;-77
2022/01/01 01:45:16;;;;;;;1999.90;999.90;;;10.30;86.30;;;;;;4957200;28;20385;-77
2022/01/01 01:47:43;;;;;;;1999.90;999.90;;;10.30;86.30;;;;;;4961977;28;20031;-77
2022/01/01 01:50:10;;;;;;;1999.90;999.90;;;10.30;86.40;;;;;;4962067;28;20057;-77
2022/01/01 01:52:37;;;;;;;1999.90;999.90;;;10.30;86.40;;;;;;4961878;28;20035;-77
2022/01/01 01:55:05;;;;;;;1999.90;999.90;;;10.30;86.30;;;;;;4963136;28;20466;-77
2022/01/01 01:57:33;;;;;;;1999.90;999.90;;;10.30;86.30;;;;;;4973114;28;20047;-77
2022/01/01 01:59:59;;;;;;;1999.90;999.90;;;10.20;86.30;;;;;;4957219;28;20045;-77
2022/01/01 02:02:25;;;;;;;1999.90;999.90;;;10.20;86.50;;;;;;4966158;28;20050;-77
2022/01/01 02:04:51;;;;;;;1999.90;999.90;;;10.20;86.60;;;;;;4961166;28;20504;-77
2022/01/01 02:07:17;;;;;;;1999.90;999.90;;;10.20;86.60;;;;;;4943046;28;20199;-77
2022/01/01 02:09:44;;;;;;;1999.90;999.90;;;10.10;86.50;;;;;;4973809;28;20042;-77
2022/01/01 02:12:10;;;;;;;1999.90;999.90;;;10.10;86.50;;;;;;4957529;28;20428;-77
2022/01/01 02:17:38;;;;;;;1999.90;999.90;;;10.10;86.30;;;;;;4959395;28;20487;-77
2022/01/01 02:20:15;;;;;;;1999.90;999.90;;;10.10;86.30;;;;;;4965774;28;20042;-77
2022/01/01 02:22:48;;;;;;;1999.90;999.90;;;10.00;86.40;;;;;;4961641;28;20023;-77
2022/01/01 02:25:15;;;;;;;1999.90;999.90;;;10.00;86.50;;;;;;4963813;28;20041;-77
2022/01/01 02:27:42;;;;;;;1999.90;999.90;;;9.90;86.50;;;;;;4957083;28;20027;-77
2022/01/01 02:30:09;;;;;;;1999.90;999.90;;;9.90;86.40;;;;;;4973680;28;20091;-77
2022/01/01 02:32:36;;;;;;;1999.90;999.90;;;9.90;86.40;;;;;;4972425;28;20035;-77
2022/01/01 02:35:03;;;;;;;1999.90;999.90;;;9.90;86.40;;;;;;4954062;28;20047;-77
2022/01/01 02:37:31;;;;;;;1999.90;999.90;;;9.80;86.40;;;;;;4967360;28;20496;-77
2022/01/01 02:39:58;;;;;;;1999.90;999.90;;;9.70;86.40;;;;;;4954064;28;20639;-77
2022/01/01 02:42:24;;;;;;;1999.90;999.90;;;9.70;86.50;;;;;;4956822;28;20034;-77
2022/01/01 02:44:53;;;;;;;1999.90;999.90;;;9.60;86.40;;;;;;4959893;28;20023;-77
2022/01/01 02:47:20;;;;;;;1999.90;999.90;;;9.60;86.50;;;;;;4970491;28;20054;-77
2022/01/01 02:49:46;;;;;;;1999.90;999.90;;;9.50;86.60;;;;;;4967845;28;20027;-77
2022/01/01 02:52:12;;;;;;;1999.90;999.90;;;9.40;86.50;;;;;;4960655;28;20031;-77
2022/01/01 02:54:38;;;;;;;1999.90;999.90;;;9.40;86.60;;;;;;4960700;28;20030;-77
2022/01/01 02:57:04;;;;;;;1999.90;999.90;;;9.30;86.60;;;;;;4941345;29;20038;-77
2022/01/01 02:59:30;;;;;;;1999.90;999.90;;;9.30;86.70;;;;;;4961487;28;20039;-77
2022/01/01 03:01:57;;;;;;;1999.90;999.90;;;9.20;86.70;;;;;;4959807;28;20039;-77
2022/01/01 03:04:23;;;;;;;1999.90;999.90;;;9.20;86.90;;;;;;4970449;28;20038;-77
2022/01/01 03:06:54;;;;;;;1999.90;999.90;;;9.20;86.90;;;;;;4965667;28;20023;-77
2022/01/01 03:09:22;;;;;;;1999.90;999.90;;;9.20;86.90;;;;;;4969738;28;20380;-77
2022/01/01 03:11:49;;;;;;;1999.90;999.90;;;9.20;86.80;;;;;;4958041;28;20043;-77
2022/01/01 03:14:17;;;;;;;1999.90;999.90;;;9.30;86.90;;;;;;4965114;28;20022;-77
2022/01/01 03:16:45;;;;;;;1999.90;999.90;;;9.30;86.90;;;;;;4969430;28;20027;-78
2022/01/01 03:19:11;;;;;;;1999.90;999.90;;;9.30;86.80;;;;;;4966662;28;20038;-77
2022/01/01 03:21:37;;;;;;;1999.90;999.90;;;9.40;86.80;;;;;;4969087;28;20028;-77
2022/01/01 03:24:04;;;;;;;1999.90;999.90;;;9.40;86.70;;;;;;4969445;28;21377;-77
2022/01/01 03:26:30;;;;;;;1999.90;999.90;;;9.40;86.60;;;;;;4960705;28;20050;-78
2022/01/01 03:28:56;;;;;;;1999.90;999.90;;;9.40;86.60;;;;;;4943270;28;20068;-78
2022/01/01 03:31:24;;;;;;;1999.90;999.90;;;9.40;86.50;;;;;;4956510;28;20034;-77
2022/01/01 03:33:51;;;;;;;1999.90;999.90;;;9.40;86.50;;;;;;4966545;28;20031;-78
2022/01/01 03:36:17;;;;;;;1999.90;999.90;;;9.40;86.60;;;;;;4978811;28;20026;-77
2022/01/01 03:38:43;;;;;;;1999.90;999.90;;;9.30;86.60;;;;;;4959177;28;20400;-78
2022/01/01 03:41:09;;;;;;;1999.90;999.90;;;9.40;86.60;;;;;;4961527;28;20039;-77
2022/01/01 03:43:35;;;;;;;1999.90;999.90;;;9.40;86.60;;;;;;4944394;28;20051;-77
2022/01/01 03:46:01;;;;;;;1999.90;999.90;;;9.40;86.60;;;;;;4959480;28;20046;-78
2022/01/01 03:48:28;;;;;;;1999.90;999.90;;;9.40;86.50;;;;;;4955599;28;20035;-77
2022/01/01 03:50:54;;;;;;;1999.90;999.90;;;9.30;86.50;;;;;;4967168;28;20468;-77
2022/01/01 03:53:21;;;;;;;1999.90;999.90;;;9.40;86.50;;;;;;4962763;28;20031;-77
2022/01/01 03:55:47;;;;;;;1999.90;999.90;;;9.30;86.60;;;;;;4966508;28;20027;-77
2022/01/01 03:58:13;;;;;;;1999.90;999.90;;;9.30;86.60;;;;;;4961257;28;20035;-77
2022/01/01 04:00:40;;;;;;;1999.90;999.90;;;9.30;86.60;;;;;;4955185;28;20044;-77
2022/01/01 04:03:12;;;;;;;1999.90;999.90;;;9.30;86.60;;;;;;4978432;28;20383;-80
2022/01/01 04:05:40;;;;;;;1999.90;999.90;;;9.30;86.70;;;;;;4942924;28;20038;-78
2022/01/01 04:08:06;;;;;;;1999.90;999.90;;;9.30;86.70;;;;;;4959832;28;20027;-78
2022/01/01 04:10:33;;;;;;;1999.90;999.90;;;9.30;86.70;;;;;;4961665;28;20037;-78
2022/01/01 04:12:59;;;;;;;1999.90;999.90;;;9.30;86.60;;;;;;4969735;28;20051;-78
2022/01/01 04:15:26;;;;;;;1999.90;999.90;;;9.40;86.60;;;;;;4965906;28;20034;-78
2022/01/01 04:17:57;;;;;;;1999.90;999.90;;;9.40;86.60;;;;;;4968773;28;20042;-77
2022/01/01 04:20:23;;;;;;;;;;;9.40;86.60;;;;;;4969509;28;20046;-78
2022/01/01 04:22:50;;;;;;;1999.90;999.90;;;9.40;86.60;;;;;;4952729;28;20319;-77
2022/01/01 04:25:16;;;;;;;1999.90;999.90;;;9.40;86.50;;;;;;4952555;28;20038;-77
2022/01/01 04:27:42;;;;;;;1999.90;999.90;;;9.40;86.40;;;;;;4970203;28;20030;-77
2022/01/01 04:30:09;;;;;;;1999.90;999.90;;;9.40;86.40;;;;;;4970521;28;20042;-77
2022/01/01 04:32:35;;;;;;;1999.90;999.90;;;9.40;86.50;;;;;;4969074;28;20030;-77
2022/01/01 04:35:01;;;;;;;1999.90;999.90;;;9.40;86.60;;;;;;4970142;28;20496;-78
2022/01/01 04:37:27;;;;;;;1999.90;999.90;;;9.40;86.60;;;;;;4970266;28;20022;-77
2022/01/01 04:39:59;;;;;;;1999.90;999.90;;;9.40;86.60;;;;;;4972754;28;20054;-77
2022/01/01 04:42:28;;;;;;;1999.90;999.90;;;9.40;86.60;;;;;;4973458;28;20027;-77
2022/01/01 04:44:54;;;;;;;1999.90;999.90;;;9.40;86.50;;;;;;4972191;28;20038;-78
2022/01/01 04:47:21;;;;;;;1999.90;999.90;;;9.40;86.40;;;;;;4972941;28;20133;-78
2022/01/01 04:49:47;;;;;;;1999.90;999.90;;;9.40;86.40;;;;;;4973445;28;20408;-77
2022/01/01 04:52:13;;;;;;;1999.90;999.90;;;9.40;86.40;;;;;;4973414;28;20042;-77
2022/01/01 04:54:41;;;;;;;1999.90;999.90;;;9.30;87.10;;;;;;4973335;28;20038;-77
2022/01/01 04:57:08;;;;;;;1999.90;999.90;;;9.30;86.50;;;;;;4972724;28;20062;-77
2022/01/01 04:59:34;;;;;;;1999.90;999.90;;;9.30;86.50;;;;;;4970306;28;20050;-77
2022/01/01 05:02:01;;;;;;;1999.90;999.90;;;9.30;86.60;;;;;;4968124;28;20035;-77
2022/01/01 05:04:27;;;;;;;1999.90;999.90;;;9.30;86.60;;;;;;4970780;28;20034;-78
2022/01/01 05:06:53;;;;;;;1999.90;999.90;;;9.30;86.60;;;;;;4970358;28;21446;-77
2022/01/01 05:09:19;;;;;;;1999.90;999.90;;;9.20;86.60;;;;;;4971576;28;20038;-76
2022/01/01 05:11:48;;;;;;;1999.90;999.90;;;9.20;86.60;;;;;;4969974;28;20027;-77
2022/01/01 05:14:15;;;;;;;1999.90;999.90;;;9.20;86.60;;;;;;4967682;28;20031;-78
2022/01/01 05:16:41;;;;;;;1999.90;999.90;;;9.20;86.70;;;;;;4953420;28;20035;-78
2022/01/01 05:19:07;;;;;;;1999.90;999.90;;;9.30;86.70;;;;;;4970493;28;20055;-77
2022/01/01 05:21:36;;;;;;;1999.90;999.90;;;9.30;86.60;;;;;;4970685;28;20038;-78
2022/01/01 05:24:04;;;;;;;1999.90;999.90;;;9.20;86.60;;;;;;4970367;28;20031;-78
2022/01/01 05:26:31;;;;;;;1999.90;999.90;;;9.20;86.70;;;;;;4968322;28;20034;-78
2022/01/01 05:28:57;;;;;;;1999.90;999.90;;;9.20;86.70;;;;;;4968691;28;20433;-78
2022/01/01 05:31:23;;;;;;;1999.90;999.90;;;9.20;87.40;;;;;;4968578;28;20034;-77
2022/01/01 05:33:49;;;;;;;1999.90;999.90;;;9.20;86.70;;;;;;4968886;28;20039;-77
2022/01/01 05:36:15;;;;;;;1999.90;999.90;;;9.20;86.70;;;;;;4969456;28;20027;-78
2022/01/01 05:38:43;;;;;;;1999.90;999.90;;;9.20;86.60;;;;;;4970410;28;20409;-78
2022/01/01 05:41:09;;;;;;;1999.90;999.90;;;9.10;86.60;;;;;;4969220;28;20027;-78
2022/01/01 05:43:35;;;;;;;1999.90;999.90;;;9.10;86.60;;;;;;4968262;28;20030;-78
2022/01/01 05:46:01;;;;;;;1999.90;999.90;;;9.10;86.60;;;;;;4969159;28;20031;-78
2022/01/01 05:48:28;;;;;;;1999.90;999.90;;;9.10;86.60;;;;;;4969698;28;20042;-77
2022/01/01 05:50:54;;;;;;;1999.90;999.90;;;9.00;86.60;;;;;;4967892;28;20030;-78
2022/01/01 05:53:20;;;;;;;1999.90;999.90;;;9.00;86.70;;;;;;4968193;28;20031;-78
2022/01/01 05:55:47;;;;;;;1999.90;999.90;;;8.90;86.70;;;;;;4969619;28;20030;-78
2022/01/01 05:58:13;;;;;;;1999.90;999.90;;;8.90;86.90;;;;;;4968929;28;20072;-78
2022/01/01 06:00:39;;;;;;;1999.90;999.90;;;8.80;86.80;;;;;;4953844;28;20050;-77
2022/01/01 06:03:05;;;;;;;1999.90;999.90;;;8.80;86.80;;;;;;4969752;28;20027;-78
2022/01/01 06:05:31;;;;;;;1999.90;999.90;;;8.90;86.90;;;;;;4953495;28;20050;-77
2022/01/01 06:07:58;;;;;;;1999.90;999.90;;;8.90;86.90;;;;;;4967287;28;20499;-77
2022/01/01 06:10:24;;;;;;;1999.90;999.90;;;8.80;86.80;;;;;;4967960;28;20039;-77
2022/01/01 06:12:51;;;;;;;1999.90;999.90;;;8.80;86.70;;;;;;4969172;28;20034;-78
2022/01/01 06:15:17;;;;;;;1999.90;999.90;;;8.80;86.90;;;;;;4952831;28;20043;-77
2022/01/01 06:17:43;;;;;;;1999.90;999.90;;;8.80;87.20;;;;;;4967390;28;20034;-78
2022/01/01 06:20:10;;;;;;;1999.90;999.90;;;8.70;86.90;;;;;;4951828;28;20058;-78
2022/01/01 06:22:36;;;;;;;1999.90;999.90;;;8.80;87.10;;;;;;4967626;28;20035;-78
2022/01/01 06:25:03;;;;;;;1999.90;999.90;;;8.80;87.00;;;;;;4968686;28;20424;-77
2022/01/01 06:27:29;;;;;;;1999.90;999.90;;;8.80;86.90;;;;;;4969254;28;20045;-77
2022/01/01 06:29:55;;;;;;;1999.90;999.90;;;8.80;86.80;;;;;;4966727;28;20042;-77
2022/01/01 06:32:21;;;;;;;1999.90;999.90;;;8.80;86.80;;;;;;4966751;28;20043;-77
2022/01/01 06:34:47;;;;;;;1999.90;999.90;;;8.80;86.90;;;;;;4966166;28;20027;-77
2022/01/01 06:37:13;;;;;;;1999.90;999.90;;;8.80;86.90;;;;;;4967263;28;20420;-77
2022/01/01 06:39:40;;;;;;;1999.90;999.90;;;8.80;86.80;;;;;;4968465;28;20062;-77
2022/01/01 06:42:06;;;;;;;1999.90;999.90;;;8.80;87.60;;;;;;4968048;28;20047;-77
2022/01/01 06:44:32;;;;;;;1999.90;999.90;;;8.80;86.80;;;;;;4966452;28;20472;-77
2022/01/01 06:46:58;;;;;;;1999.90;999.90;;;8.80;86.80;;;;;;4964887;28;20046;-77
2022/01/01 06:49:24;;;;;;;1999.90;999.90;;;8.80;86.80;;;;;;4969954;28;20396;-77
2022/01/01 06:51:50;;;;;;;1999.90;999.90;;;8.80;86.80;;;;;;4966830;28;20035;-77
2022/01/01 06:54:16;;;;;;;1999.90;999.90;;;8.70;86.80;;;;;;4967993;28;20041;-77
2022/01/01 06:56:43;;;;;;;1999.90;999.90;;;8.70;86.90;;;;;;4966634;28;20023;-77
2022/01/01 06:59:09;;;;;;;1999.90;999.90;;;8.70;86.90;;;;;;4968514;28;20034;-77
2022/01/01 07:01:36;;;;;;;1999.90;999.90;;;8.70;86.90;;;;;;4966225;28;20034;-77
2022/01/01 07:04:03;;;;;;;1999.90;999.90;;;8.60;86.90;;;;;;4969907;28;20038;-77
2022/01/01 07:06:30;;;;;;;1999.90;999.90;;;8.60;86.90;;;;;;4955536;28;20535;-77
2022/01/01 07:08:57;;;;;;;1999.90;999.90;;;8.60;86.90;;;;;;4958544;28;20230;-77
2022/01/01 07:11:23;;;;;;;1999.90;999.90;;;8.60;86.90;;;;;;4960800;28;20027;-76
2022/01/01 07:13:49;;;;;;;1999.90;999.90;;;8.60;87.00;;;;;;4962113;28;20031;-77
2022/01/01 07:16:15;;;;;;;1999.90;999.90;;;8.60;87.00;;;;;;4971326;28;20034;-76
2022/01/01 07:18:41;;;;;;;1999.90;999.90;;;8.60;87.00;;;;;;4971190;28;20059;-77
2022/01/01 07:21:07;;;;;;;1999.90;999.90;;;8.60;87.00;;;;;;4973169;28;20503;-77
2022/01/01 07:23:33;;;;;;;1999.90;999.90;;;8.60;86.80;;;;;;4960642;28;20047;-77
2022/01/01 07:25:59;;;;;;;1999.90;999.90;;;8.60;86.80;;;;;;4960384;28;20047;-77
2022/01/01 07:28:26;;;;;;;1999.90;999.90;;;8.50;86.80;;;;;;4961470;28;20042;-76
2022/01/01 07:30:52;;;;;;;1999.90;999.90;;;8.50;86.90;;;;;;4954819;28;20046;-76
2022/01/01 07:33:18;;;;;;;1999.90;999.90;;;8.50;87.10;;;;;;4971299;28;20428;-76
2022/01/01 07:35:44;;;;;;;1999.90;999.90;;;8.50;87.10;;;;;;4962074;28;20035;-76
2022/01/01 07:38:10;;;;;;;1999.90;999.90;;;8.50;87.00;;;;;;4965626;28;20054;-77
2022/01/01 07:40:37;;;;;;;1999.90;999.90;;;8.50;87.10;;;;;;4972491;28;20045;-77
2022/01/01 07:43:13;;;;;;;1999.90;999.90;;;8.50;86.90;;;;;;4971485;28;20030;-77
2022/01/01 07:45:40;;;;;;;1999.90;999.90;;;8.50;86.90;;;;;;4967925;28;20050;-78
2022/01/01 07:48:07;;;;;;;1999.90;999.90;;;8.50;86.80;;;;;;4967804;28;20042;-79
2022/01/01 07:50:33;;;;;;;1999.90;999.90;;;8.60;86.90;;;;;;4966904;28;20476;-79
2022/01/01 07:52:59;;;;;;;1999.90;999.90;;;8.60;86.80;;;;;;4961305;28;20054;-79
2022/01/01 07:55:25;;;;;;;1999.90;999.90;;;8.60;86.70;;;;;;4969262;28;20030;-79
2022/01/01 07:57:51;;;;;;;1999.90;999.90;;;8.60;86.70;;;;;;4971786;28;20049;-80
2022/01/01 08:00:17;;;;;;;1999.90;999.90;;;8.60;86.70;;;;;;4956468;28;20047;-81
2022/01/01 08:02:45;;;;;;;1999.90;999.90;;;8.60;86.80;;;;;;4955558;28;20043;-81
2022/01/01 08:05:11;;;;;;;1999.90;999.90;;;8.60;86.80;;;;;;4972436;28;20031;-77
2022/01/01 08:07:38;;;;;;;1999.90;999.90;;;8.60;86.70;;;;;;4968257;28;20055;-78
2022/01/01 08:10:05;;;;;;;1999.90;999.90;;;8.60;86.70;;;;;;4945624;28;20043;-78
2022/01/01 08:12:31;;;;;;;1999.90;999.90;;;8.70;86.70;;;;;;4955829;28;20476;-78
2022/01/01 08:14:57;;;;;;;1999.90;999.90;;;8.70;86.70;;;;;;4962196;28;20039;-79
2022/01/01 08:17:24;;;;;;;1999.90;999.90;;;8.70;86.70;;;;;;4971948;28;20105;-78
2022/01/01 08:19:50;;;;;;;1999.90;999.90;;;8.70;86.70;;;;;;4973084;28;20054;-79
2022/01/01 08:22:16;;;;;;;1999.90;999.90;;;8.80;86.70;;;;;;4974326;28;20023;-79
2022/01/01 08:24:42;;;;;;;1999.90;999.90;;;8.80;86.60;;;;;;4974533;28;20095;-79
2022/01/01 08:27:09;;;;;;;1999.90;999.90;;;8.80;86.60;;;;;;4976577;28;20400;-79
2022/01/01 08:29:35;;;;;;;1999.90;999.90;;;8.90;86.70;;;;;;4962037;28;20493;-79
2022/01/01 08:32:01;;;;;;;1999.90;999.90;;;8.80;86.60;;;;;;4985319;28;20038;-78
2022/01/01 08:34:28;;;;;;;1999.90;999.90;;;8.90;86.60;;;;;;4973774;28;20031;-78
2022/01/01 08:36:54;;;;;;;1999.90;999.90;;;8.90;86.60;;;;;;4960455;28;20037;-78
2022/01/01 08:39:20;;;;;;;1999.90;999.90;;;8.90;86.60;;;;;;4959100;28;20057;-78
2022/01/01 08:41:46;;;;;;;1999.90;999.90;;;9.00;86.60;;;;;;4975025;28;20050;-82
2022/01/01 08:44:12;;;;;;;1999.90;999.90;;;9.00;86.50;;;;;;4970398;28;20038;-83
2022/01/01 08:46:39;;;;;;;1999.90;999.90;;;9.10;86.80;;;;;;4974951;28;20027;-82
2022/01/01 08:49:05;;;;;;;1999.90;999.90;;;9.20;86.80;;;;;;4958484;28;20043;-81
2022/01/01 08:51:35;;;;;;;1999.90;999.90;;;9.40;86.60;;;;;;4974203;28;20082;-81
2022/01/01 08:54:02;;;;;;;1999.90;999.90;;;9.50;86.40;;;;;;4974932;28;20054;-81
2022/01/01 08:56:28;;;;;;;1999.90;999.90;;;9.60;86.30;;;;;;4974420;28;20408;-81
2022/01/01 08:58:54;;;;;;;1999.90;999.90;;;9.70;86.20;;;;;;4969213;28;20038;-83
2022/01/01 09:01:20;;;;;;;1999.90;999.90;;;9.80;86.10;;;;;;4971196;28;20039;-84
2022/01/01 09:03:46;;;;;;;1999.90;999.90;;;9.90;86.10;;;;;;4972328;28;20023;-82
2022/01/01 09:06:13;;;;;;;1999.90;999.90;;;9.90;85.90;;;;;;4960306;28;20031;-82
2022/01/01 09:08:41;;;;;;;1999.90;999.90;;;10.00;86.00;;;;;;4968010;28;20023;-82
2022/01/01 09:11:09;;;;;;;1999.90;999.90;;;10.10;85.90;;;;;;4969020;28;20046;-81
2022/01/01 09:13:35;;;;;;;1999.90;999.90;;;10.20;86.00;;;;;;4968780;28;20019;-82
2022/01/01 09:16:01;;;;;;;1999.90;999.90;;;10.20;85.80;;;;;;4955964;28;20053;-81
2022/01/01 09:18:27;;;;;;;1999.90;999.90;;;10.30;85.80;;;;;;4927733;28;20043;-82
2022/01/01 09:20:54;;;;;;;1999.90;999.90;;;10.40;85.70;;;;;;4969896;28;20396;-81
2022/01/01 09:23:20;;;;;;;1999.90;999.90;;;10.50;85.70;;;;;;4975029;28;20030;-81
2022/01/01 09:25:46;;;;;;;1999.90;999.90;;;10.50;85.60;;;;;;4973601;28;20038;-81
2022/01/01 09:28:13;;;;;;;1999.90;999.90;;;10.50;85.70;;;;;;4973490;28;20027;-80
2022/01/01 09:30:39;;;;;;;1999.90;999.90;;;10.50;85.70;;;;;;4972838;28;20035;-80
2022/01/01 09:33:06;;;;;;;1999.90;999.90;;;10.60;85.70;;;;;;4975297;28;20042;-80
2022/01/01 09:35:32;;;;;;;1999.90;999.90;;;10.60;85.60;;;;;;4960072;28;20039;-82
2022/01/01 09:37:58;;;;;;;1999.90;999.90;;;10.70;85.60;;;;;;4974636;28;20046;-79
2022/01/01 09:40:25;;;;;;;1999.90;999.90;;;10.70;85.60;;;;;;4973424;28;20046;-81
2022/01/01 09:42:51;;;;;;;1999.90;999.90;;;10.80;85.60;;;;;;4959303;28;20034;-80
2022/01/01 09:45:18;;;;;;;1999.90;999.90;;;10.80;85.50;;;;;;4976050;28;20034;-82
2022/01/01 09:47:44;;;;;;;1999.90;999.90;;;10.90;85.40;;;;;;4971648;28;20392;-82
2022/01/01 09:50:10;;;;;;;1999.90;999.90;;;10.90;85.30;;;;;;4970605;28;20053;-79
2022/01/01 09:52:36;;;;;;;1999.90;999.90;;;10.90;85.40;;;;;;4971449;28;20030;-79
2022/01/01 09:55:03;;;;;;;1999.90;999.90;;;11.00;85.50;;;;;;4971544;28;20469;-83
2022/01/01 09:58:09;;;;;;;1999.90;999.90;;;11.10;84.80;;;;;;5058227;28;20923;-85
2022/01/01 10:00:35;;;;;;;1999.90;999.90;;;11.20;85.30;;;;;;5058720;28;21036;-85
2022/01/01 10:03:01;;;;;;;1999.90;999.90;;;11.20;85.00;;;;;;5013297;28;20022;-84
2022/01/01 10:05:27;;;;;;;1999.90;999.90;;;11.20;84.80;;;;;;5014808;28;20064;-84
2022/01/01 10:07:53;;;;;;;1999.90;999.90;;;11.20;84.90;;;;;;5015138;28;20034;-87
2022/01/01 10:10:21;;;;;;;1999.90;999.90;;;11.20;85.00;;;;;;5014106;28;20037;-84
2022/01/01 10:12:47;;;;;;;1999.90;999.90;;;11.30;85.10;;;;;;4998835;28;20410;-83
2022/01/01 10:15:14;;;;;;;1999.90;999.90;;;11.30;85.00;;;;;;5017169;28;20018;-83
2022/01/01 10:17:40;;;;;;;1999.90;999.90;;;11.40;85.00;;;;;;5015550;28;20054;-83
2022/01/01 10:20:08;;;;;;;1999.90;999.90;;;11.50;84.90;;;;;;5016080;28;20030;-84
2022/01/01 10:22:35;;;;;;;1999.90;999.90;;;11.60;84.80;;;;;;5016184;28;20042;-83
2022/01/01 10:28:01;;;;;;;1999.90;999.90;;;11.80;84.30;;;;;;5015616;28;20034;-83
2022/01/01 10:30:35;;;;;;;1999.90;999.90;;;11.90;84.10;;;;;;5013128;28;20415;-87
2022/01/01 10:33:02;;;;;;;1999.90;999.90;;;12.00;83.90;;;;;;5015108;28;20033;-84
2022/01/01 10:35:33;;;;;;;1999.90;999.90;;;12.10;83.70;;;;;;5014437;28;20426;-86
2022/01/01 10:37:59;;;;;;;1999.90;999.90;;;12.10;83.80;;;;;;5027322;28;20050;-82
2022/01/01 10:40:26;;;;;;;1999.90;999.90;;;12.10;83.80;;;;;;5014705;28;20030;-82
2022/01/01 10:42:52;;;;;;;1999.90;999.90;;;12.20;83.90;;;;;;5016034;28;20030;-85
2022/01/01 10:45:41;;;;;;;1999.90;999.90;;;12.20;84.00;;;;;;5013619;28;20033;-85
2022/01/01 10:48:39;;;;;;;1999.90;999.90;;;12.20;84.20;;;;;;5031651;28;20022;-88
2022/01/01 10:51:07;;;;;;;1999.90;999.90;;;12.20;84.20;;;;;;5015794;28;20510;-85
2022/01/01 10:53:34;;;;;;;1999.90;999.90;;;12.40;84.10;;;;;;5015436;28;20034;-87
2022/01/01 10:56:01;;;;;;;1999.90;999.90;;;12.70;83.80;;;;;;4982894;28;20042;-85
2022/01/01 10:58:29;;;;;;;1999.90;999.90;;;13.00;83.00;;;;;;5014864;28;20479;-85
2022/01/01 11:01:00;;;;;;;1999.90;999.90;;;13.30;82.20;;;;;;5015065;28;20042;-87
2022/01/01 11:03:27;;;;;;;1999.90;999.90;;;13.50;81.70;;;;;;4997474;28;20049;-86
2022/01/01 11:06:12;;;;;;;1999.90;999.90;;;13.50;81.40;;;;;;5015568;28;20814;-85
2022/01/01 11:08:40;;;;;;;1999.90;999.90;;;13.40;81.60;;;;;;5008409;28;20368;-88
2022/01/01 11:11:06;;;;;;;1999.90;999.90;;;13.30;82.00;;;;;;4985431;28;20471;-83
2022/01/01 11:13:32;;;;;;;1999.90;999.90;;;13.30;82.60;;;;;;4985863;28;20400;-83
2022/01/01 11:15:58;;;;;;;1999.90;999.90;;;13.30;82.80;;;;;;5002811;28;20046;-83
2022/01/01 11:18:25;;;;;;;1999.90;999.90;;;13.40;82.70;;;;;;5000280;28;20090;-83
2022/01/01 11:20:51;;;;;;;1999.90;999.90;;;13.40;82.50;;;;;;5001906;28;20046;-84
2022/01/01 11:23:18;;;;;;;1999.90;999.90;;;13.60;82.20;;;;;;4985780;28;20106;-82
2022/01/01 11:25:44;;;;;;;1999.90;999.90;;;13.90;81.80;;;;;;5001884;28;20040;-83
2022/01/01 11:28:15;;;;;;;1999.90;999.90;;;14.20;81.40;;;;;;4985905;28;20042;-84
2022/01/01 11:31:12;;;;;;;1999.90;999.90;;;14.30;80.90;;;;;;4999615;28;20053;-84
2022/01/01 11:33:40;;;;;;;1999.90;999.90;;;14.50;80.60;;;;;;4985020;28;20045;-83
2022/01/01 11:36:07;;;;;;;1999.90;999.90;;;14.40;80.40;;;;;;5000908;28;20030;-83
2022/01/01 11:38:35;;;;;;;1999.90;999.90;;;14.40;80.70;;;;;;5001489;28;20482;-82
2022/01/01 11:41:11;;;;;;;1999.90;999.90;;;14.30;81.00;;;;;;4968926;28;20042;-82
2022/01/01 11:43:53;;;;;;;1999.90;999.90;;;14.40;81.10;;;;;;4984744;28;20053;-83
2022/01/01 11:46:29;;;;;;;1999.90;999.90;;;14.50;81.20;;;;;;4999917;28;20034;-82
2022/01/01 11:48:57;;;;;;;1999.90;999.90;;;14.60;81.00;;;;;;5000172;28;20026;-89
2022/01/01 11:51:29;;;;;;;1999.90;999.90;;;14.80;80.70;;;;;;4984344;28;20026;-83
2022/01/01 11:54:20;;;;;;;1999.90;999.90;;;15.00;80.40;;;;;;5007750;28;20049;-82
2022/01/01 11:56:49;;;;;;;1999.90;999.90;;;15.10;80.00;;;;;;4996900;28;20045;-82
2022/01/01 11:59:34;;;;;;;1999.90;999.90;;;15.30;79.80;;;;;;4994620;28;20045;-80
2022/01/01 12:02:02;;;;;;;1999.90;999.90;;;15.40;79.30;;;;;;4990107;28;20046;-79
2022/01/01 12:04:39;;;;;;;1999.90;999.90;;;15.30;79.20;;;;;;4991449;28;20108;-79
2022/01/01 12:07:20;;;;;;;1999.90;999.90;;;15.20;79.30;;;;;;4974389;28;20053;-79
2022/01/01 12:10:06;;;;;;;1999.90;999.90;;;15.10;79.80;;;;;;4974075;28;20034;-80
2022/01/01 12:12:38;;;;;;;1999.90;999.90;;;15.10;80.00;;;;;;4991070;28;20487;-80